Time;durP1;ratioP1;P1;durP2;ratioP2;P2;SDS_P1;SDS_P2;PMS_P1;PMS_P2;Temp;Humidity;BMP_temperature;BMP_pressure;BME280_temperature;BME280_humidity;BME280_pressure;Samples;Min_cycle;Max_cycle;Signal;HPM_P1;HPM_P2
2023/08/25 00:00:44;;;;;;;10.37;9.47;;;21.70;99.90;;;;;;5070550;28;20864;-66
2023/08/25 00:03:11;;;;;;;9.27;8.57;;;21.60;99.90;;;;;;5070370;28;20479;-66
2023/08/25 00:05:38;;;;;;;9.40;8.70;;;21.60;99.90;;;;;;5070652;28;20460;-66
2023/08/25 00:08:05;;;;;;;8.70;8.20;;;21.50;99.90;;;;;;5070169;28;20998;-66
2023/08/25 00:10:33;;;;;;;9.63;8.80;;;21.50;99.90;;;;;;5070378;28;20450;-66
2023/08/25 00:12:59;;;;;;;9.47;8.87;;;21.50;99.90;;;;;;5070246;28;20465;-66
2023/08/25 00:15:28;;;;;;;9.27;8.57;;;21.40;99.90;;;;;;5070245;28;20451;-66
2023/08/25 00:17:55;;;;;;;9.57;8.77;;;21.40;99.90;;;;;;5069304;28;20536;-66
2023/08/25 00:20:22;;;;;;;8.87;8.13;;;21.30;99.90;;;;;;5070140;28;20448;-66
2023/08/25 00:22:48;;;;;;;9.87;8.80;;;21.30;99.90;;;;;;5070081;28;20490;-66
2023/08/25 00:25:16;;;;;;;9.73;8.73;;;21.30;99.90;;;;;;5070434;28;20479;-66
2023/08/25 00:27:42;;;;;;;8.40;7.80;;;21.20;99.90;;;;;;5069412;28;20938;-66
2023/08/25 00:30:11;;;;;;;9.50;8.70;;;21.20;99.90;;;;;;5070031;28;20544;-66
2023/08/25 00:32:40;;;;;;;8.93;8.23;;;21.20;99.90;;;;;;5070016;28;20557;-66
2023/08/25 00:35:08;;;;;;;9.70;8.90;;;21.10;99.90;;;;;;5070401;28;20576;-66
2023/08/25 00:37:34;;;;;;;8.83;8.13;;;21.10;99.90;;;;;;5069288;28;20448;-66
2023/08/25 00:40:02;;;;;;;8.43;7.70;;;21.10;99.90;;;;;;5070039;28;20454;-66
2023/08/25 00:42:29;;;;;;;8.27;7.67;;;21.00;99.90;;;;;;5068162;28;20582;-65
2023/08/25 00:44:55;;;;;;;8.60;7.90;;;21.00;99.90;;;;;;5069794;28;20459;-66
2023/08/25 00:47:24;;;;;;;8.60;7.90;;;21.00;99.90;;;;;;5068891;28;20547;-66
2023/08/25 00:49:54;;;;;;;9.33;8.57;;;20.90;99.90;;;;;;5069775;28;20454;-66
2023/08/25 00:52:22;;;;;;;9.10;8.30;;;20.90;99.90;;;;;;5069669;28;20546;-66
2023/08/25 00:54:52;;;;;;;9.30;8.70;;;20.80;99.90;;;;;;5069602;28;20450;-66
2023/08/25 00:57:20;;;;;;;8.70;8.10;;;20.80;99.90;;;;;;5069124;28;20449;-66
2023/08/25 00:59:47;;;;;;;9.50;8.70;;;20.80;99.90;;;;;;5069918;28;20983;-66
2023/08/25 01:02:15;;;;;;;9.90;8.87;;;20.70;99.90;;;;;;5069509;28;20580;-66
2023/08/25 01:04:42;;;;;;;8.17;7.40;;;20.70;99.90;;;;;;5069505;28;20858;-66
2023/08/25 01:07:10;;;;;;;8.07;7.37;;;20.60;99.90;;;;;;5068523;28;20450;-65
2023/08/25 01:09:37;;;;;;;9.53;8.67;;;20.60;99.90;;;;;;5069279;28;21158;-66
2023/08/25 01:12:08;;;;;;;9.53;7.50;;;20.60;99.90;;;;;;5069436;28;20516;-66
2023/08/25 01:14:43;;;;;;;7.80;7.30;;;20.50;99.90;;;;;;5069294;28;20472;-66
2023/08/25 01:17:18;;;;;;;7.93;7.43;;;20.50;99.90;;;;;;5068496;28;20451;-66
2023/08/25 01:19:54;;;;;;;8.27;7.40;;;20.50;99.90;;;;;;5069078;28;20880;-66
2023/08/25 01:22:28;;;;;;;8.33;7.50;;;20.50;99.90;;;;;;5068725;28;20584;-66
2023/08/25 01:25:03;;;;;;;8.03;7.43;;;20.40;99.90;;;;;;5069331;28;20538;-66
2023/08/25 01:27:32;;;;;;;8.07;7.37;;;20.40;99.90;;;;;;5068603;28;20459;-66
2023/08/25 01:29:59;;;;;;;8.20;7.40;;;20.40;99.90;;;;;;5069006;28;20832;-66
2023/08/25 01:32:26;;;;;;;9.07;8.23;;;20.30;99.90;;;;;;5068614;28;20548;-66
2023/08/25 01:34:53;;;;;;;8.30;7.50;;;20.30;99.90;;;;;;5069015;28;20820;-65
2023/08/25 01:37:26;;;;;;;9.03;8.27;;;20.30;99.90;;;;;;5067894;28;20453;-66
2023/08/25 01:39:59;;;;;;;12.80;7.70;;;20.30;99.90;;;;;;5068805;28;20456;-66
2023/08/25 01:42:29;;;;;;;8.80;8.07;;;20.20;99.90;;;;;;5068336;28;20595;-66
2023/08/25 01:44:58;;;;;;;9.77;8.97;;;20.20;99.90;;;;;;5068999;28;20535;-66
2023/08/25 01:47:28;;;;;;;9.00;8.10;;;20.20;99.90;;;;;;5068136;28;20825;-66
2023/08/25 01:49:57;;;;;;;10.30;9.57;;;20.10;99.90;;;;;;5068658;28;20451;-66
2023/08/25 01:52:25;;;;;;;9.77;8.77;;;20.10;99.90;;;;;;5068535;28;20443;-65
2023/08/25 01:54:52;;;;;;;8.37;7.67;;;20.10;99.90;;;;;;5068209;28;20448;-66
2023/08/25 01:57:19;;;;;;;10.00;9.20;;;20.10;99.90;;;;;;5067602;28;20548;-66
2023/08/25 01:59:46;;;;;;;9.73;8.90;;;20.10;99.90;;;;;;5068454;28;20660;-66
2023/08/25 02:02:14;;;;;;;8.93;8.30;;;20.10;99.90;;;;;;5068239;28;20913;-66
2023/08/25 02:04:41;;;;;;;11.03;9.60;;;20.10;99.90;;;;;;5068175;28;20456;-66
2023/08/25 02:07:08;;;;;;;10.50;9.10;;;20.10;99.90;;;;;;5067308;28;20462;-66
2023/08/25 02:09:35;;;;;;;10.07;9.33;;;20.10;99.90;;;;;;5068070;28;20459;-66
2023/08/25 02:12:02;;;;;;;9.40;8.70;;;20.10;99.90;;;;;;5068096;28;20450;-66
2023/08/25 02:14:29;;;;;;;8.97;8.27;;;20.10;99.90;;;;;;5068194;28;20465;-66
2023/08/25 02:16:55;;;;;;;9.10;8.30;;;20.10;99.90;;;;;;5067500;28;20828;-66
2023/08/25 02:19:24;;;;;;;10.47;9.57;;;20.10;99.90;;;;;;5068216;28;20452;-66
2023/08/25 02:21:50;;;;;;;9.53;8.80;;;20.10;99.90;;;;;;5067994;28;20611;-66
2023/08/25 02:24:17;;;;;;;9.93;9.13;;;20.10;99.90;;;;;;5067826;28;20464;-66
2023/08/25 02:26:44;;;;;;;10.73;9.83;;;20.10;99.90;;;;;;5067231;28;20828;-66
2023/08/25 02:29:11;;;;;;;9.07;8.37;;;20.10;99.90;;;;;;5068049;28;20449;-66
2023/08/25 02:31:38;;;;;;;9.60;8.33;;;20.10;99.90;;;;;;5067791;28;20547;-66
2023/08/25 02:34:04;;;;;;;8.50;7.90;;;20.10;99.90;;;;;;5067940;28;20913;-66
2023/08/25 02:36:33;;;;;;;9.57;8.67;;;20.10;99.90;;;;;;5067143;28;20448;-66
2023/08/25 02:38:59;;;;;;;9.50;8.60;;;20.10;99.90;;;;;;5067970;28;20448;-66
2023/08/25 02:41:26;;;;;;;10.23;9.43;;;20.00;99.90;;;;;;5067830;28;21039;-66
2023/08/25 02:43:53;;;;;;;9.20;8.40;;;20.10;99.90;;;;;;5084633;28;20477;-65
2023/08/25 02:46:20;;;;;;;8.43;7.70;;;20.10;99.90;;;;;;5082814;28;20445;-66
2023/08/25 02:48:47;;;;;;;8.80;8.20;;;20.00;99.90;;;;;;5085017;28;20823;-66
2023/08/25 02:51:13;;;;;;;8.87;8.23;;;20.00;99.90;;;;;;5067811;28;20541;-66
2023/08/25 02:53:42;;;;;;;10.53;8.20;;;20.00;99.90;;;;;;5067764;28;20469;-66
2023/08/25 02:56:08;;;;;;;8.13;7.63;;;20.10;99.90;;;;;;5067089;28;20470;-66
2023/08/25 02:58:35;;;;;;;8.63;7.83;;;20.00;99.90;;;;;;5067751;28;20454;-66
2023/08/25 03:01:10;;;;;;;9.33;8.53;;;20.00;99.90;;;;;;5067690;28;20442;-66
2023/08/25 03:03:37;;;;;;;10.87;9.67;;;20.00;99.90;;;;;;5067611;28;20486;-66
2023/08/25 03:06:04;;;;;;;9.17;8.37;;;20.00;99.90;;;;;;5069178;28;20457;-66
2023/08/25 03:08:30;;;;;;;8.67;7.93;;;20.00;99.90;;;;;;5071799;28;20811;-66
2023/08/25 03:11:02;;;;;;;9.03;8.23;;;20.00;99.90;;;;;;5071727;28;20826;-66
2023/08/25 03:13:29;;;;;;;9.33;8.53;;;19.90;99.90;;;;;;5089487;28;20468;-66
2023/08/25 03:15:58;;;;;;;8.13;7.53;;;19.90;99.90;;;;;;5070686;28;20476;-65
2023/08/25 03:18:25;;;;;;;8.83;8.03;;;19.90;99.90;;;;;;5071509;28;20452;-66
2023/08/25 03:20:52;;;;;;;9.47;8.60;;;19.90;99.90;;;;;;5071349;28;20453;-65
2023/08/25 03:23:18;;;;;;;9.13;8.13;;;19.90;99.90;;;;;;5067506;28;20503;-66
2023/08/25 03:25:45;;;;;;;8.07;7.47;;;19.90;99.90;;;;;;5071256;28;20458;-65
2023/08/25 03:28:13;;;;;;;13.00;9.27;;;19.80;99.90;;;;;;5070686;28;20445;-66
2023/08/25 03:30:40;;;;;;;10.30;8.27;;;19.80;99.90;;;;;;5071010;28;20467;-65
2023/08/25 03:33:07;;;;;;;8.30;7.60;;;19.80;99.90;;;;;;5070921;28;20466;-66
2023/08/25 03:35:34;;;;;;;9.07;8.27;;;19.80;99.90;;;;;;5070978;28;20538;-66
2023/08/25 03:38:01;;;;;;;9.03;8.30;;;19.70;99.90;;;;;;5069236;28;20462;-66
2023/08/25 03:40:28;;;;;;;8.90;8.20;;;19.70;99.90;;;;;;5070642;28;20540;-66
2023/08/25 03:42:55;;;;;;;8.10;7.40;;;19.70;99.90;;;;;;5068898;28;20583;-66
2023/08/25 03:45:24;;;;;;;6.80;6.30;;;19.70;99.90;;;;;;5070851;28;20446;-66
2023/08/25 03:47:50;;;;;;;8.13;7.53;;;19.70;99.90;;;;;;5069723;28;20447;-66
2023/08/25 03:50:17;;;;;;;7.87;7.23;;;19.60;99.90;;;;;;5070689;28;20935;-66
2023/08/25 03:52:47;;;;;;;8.13;7.53;;;19.70;99.90;;;;;;5070426;28;21025;-66
2023/08/25 03:55:13;;;;;;;8.47;7.67;;;19.70;99.90;;;;;;5085846;28;20550;-66
2023/08/25 03:57:40;;;;;;;7.50;6.90;;;19.60;99.90;;;;;;5071373;28;20562;-66
2023/08/25 04:00:08;;;;;;;10.53;9.53;;;19.60;99.90;;;;;;5070693;28;20452;-66
2023/08/25 04:02:39;;;;;;;7.00;6.50;;;19.60;99.90;;;;;;5070453;28;20503;-66
2023/08/25 04:05:06;;;;;;;7.03;6.30;;;19.60;99.90;;;;;;5071038;28;20589;-66
2023/08/25 04:07:33;;;;;;;7.00;6.50;;;19.50;99.90;;;;;;5069864;28;20517;-66
2023/08/25 04:10:00;;;;;;;8.10;7.07;;;19.50;99.90;;;;;;5070674;28;20459;-65
2023/08/25 04:12:27;;;;;;;7.27;6.57;;;19.50;99.90;;;;;;5080496;28;20816;-66
2023/08/25 04:14:54;;;;;;;6.37;5.80;;;19.40;99.90;;;;;;5090583;28;20446;-65
2023/08/25 04:17:20;;;;;;;7.77;6.90;;;19.40;99.90;;;;;;5089363;28;20951;-66
2023/08/25 04:19:49;;;;;;;6.70;6.20;;;19.40;99.90;;;;;;5090399;28;20446;-66
2023/08/25 04:22:16;;;;;;;6.83;6.23;;;19.40;99.90;;;;;;5090509;28;20489;-66
2023/08/25 04:24:42;;;;;;;8.57;6.10;;;19.40;99.90;;;;;;5090259;28;20456;-65
2023/08/25 04:27:09;;;;;;;6.47;5.97;;;19.40;99.90;;;;;;5089745;28;20946;-65
2023/08/25 04:29:36;;;;;;;6.70;6.17;;;19.30;99.90;;;;;;5090291;28;20454;-66
2023/08/25 04:32:03;;;;;;;6.43;6.03;;;19.40;99.90;;;;;;5090300;28;20464;-66
2023/08/25 04:34:30;;;;;;;5.93;5.50;;;19.30;99.90;;;;;;5090158;28;21263;-66
2023/08/25 04:36:58;;;;;;;6.93;6.23;;;19.30;99.90;;;;;;5089759;28;20466;-66
2023/08/25 04:39:25;;;;;;;10.13;6.90;;;19.40;99.90;;;;;;5090267;28;20915;-66
2023/08/25 04:41:52;;;;;;;6.27;5.67;;;19.30;99.90;;;;;;5090129;28;20565;-66
2023/08/25 04:44:19;;;;;;;6.40;5.80;;;19.30;99.90;;;;;;5088472;28;20857;-65
2023/08/25 04:46:45;;;;;;;7.17;6.53;;;19.30;99.90;;;;;;5089281;28;20450;-65
2023/08/25 04:49:12;;;;;;;6.67;6.27;;;19.30;99.90;;;;;;5090036;28;20453;-65
2023/08/25 04:51:39;;;;;;;5.50;5.00;;;19.30;99.90;;;;;;5090291;28;20452;-65
2023/08/25 04:54:08;;;;;;;5.93;5.50;;;19.30;99.90;;;;;;5090336;28;20478;-66
2023/08/25 04:56:34;;;;;;;4.60;4.20;;;19.30;99.90;;;;;;5089594;28;20442;-65
2023/08/25 04:59:01;;;;;;;6.20;5.70;;;19.30;99.90;;;;;;5089872;28;20831;-66
2023/08/25 05:01:28;;;;;;;5.50;4.70;;;19.30;99.90;;;;;;5089798;28;21000;-65
2023/08/25 05:03:55;;;;;;;5.17;4.77;;;19.30;99.90;;;;;;5089791;28;20501;-66
2023/08/25 05:06:22;;;;;;;5.80;5.23;;;19.30;99.90;;;;;;5088946;28;20454;-66
2023/08/25 05:08:49;;;;;;;5.20;4.90;;;19.30;99.90;;;;;;5089904;28;20457;-66
2023/08/25 05:11:17;;;;;;;7.73;6.50;;;19.30;99.90;;;;;;5089692;28;20517;-65
2023/08/25 05:13:44;;;;;;;6.20;5.80;;;19.30;99.90;;;;;;5089865;28;20806;-65
2023/08/25 05:16:12;;;;;;;6.17;5.77;;;19.30;99.90;;;;;;5089236;28;20460;-67
2023/08/25 05:18:38;;;;;;;6.67;6.17;;;19.30;99.90;;;;;;5089874;28;20450;-65
2023/08/25 05:21:07;;;;;;;6.03;5.53;;;19.30;99.90;;;;;;5089917;28;20480;-65
2023/08/25 05:23:33;;;;;;;6.40;5.90;;;19.40;99.90;;;;;;5089714;28;20577;-65
2023/08/25 05:26:00;;;;;;;6.87;5.83;;;19.40;99.90;;;;;;5089011;28;20453;-65
2023/08/25 05:28:29;;;;;;;5.93;5.43;;;19.50;99.90;;;;;;5088627;28;20829;-66
2023/08/25 05:30:56;;;;;;;7.70;7.03;;;19.50;99.90;;;;;;5089364;28;20461;-66
2023/08/25 05:33:22;;;;;;;6.73;6.23;;;19.60;99.90;;;;;;5089389;28;20463;-65
2023/08/25 05:35:50;;;;;;;7.07;6.50;;;19.60;99.90;;;;;;5089112;28;20543;-65
2023/08/25 05:38:16;;;;;;;7.30;6.60;;;19.70;99.90;;;;;;5088944;28;20462;-65
2023/08/25 05:40:43;;;;;;;7.37;6.83;;;19.90;99.90;;;;;;5088976;28;20962;-65
2023/08/25 05:43:10;;;;;;;9.00;7.33;;;20.00;99.90;;;;;;5087031;28;20497;-65
2023/08/25 05:45:38;;;;;;;7.50;7.00;;;20.10;99.90;;;;;;5088975;28;20463;-65
2023/08/25 05:48:06;;;;;;;7.57;6.70;;;20.20;99.90;;;;;;5088372;28;20451;-65
2023/08/25 05:50:33;;;;;;;8.23;7.53;;;20.30;99.90;;;;;;5088924;28;20457;-67
2023/08/25 05:53:00;;;;;;;7.87;7.17;;;20.40;99.90;;;;;;5088684;28;20554;-65
2023/08/25 05:55:27;;;;;;;7.70;7.20;;;20.40;99.90;;;;;;5088966;28;20451;-66
2023/08/25 05:57:54;;;;;;;7.50;7.00;;;20.50;99.90;;;;;;5088169;28;20455;-66
2023/08/25 06:00:21;;;;;;;7.30;6.80;;;20.60;99.90;;;;;;5088888;28;20967;-66
2023/08/25 06:02:49;;;;;;;6.10;5.60;;;20.70;99.90;;;;;;5088838;28;20880;-66
2023/08/25 06:05:16;;;;;;;7.13;6.53;;;20.70;99.90;;;;;;5088748;28;21146;-65
2023/08/25 06:07:43;;;;;;;5.40;5.00;;;20.80;99.90;;;;;;5087895;28;20543;-65
2023/08/25 06:10:11;;;;;;;6.17;5.77;;;20.90;99.90;;;;;;5089012;28;20450;-65
2023/08/25 06:12:37;;;;;;;6.43;6.00;;;20.90;99.90;;;;;;5088150;28;20469;-66
2023/08/25 06:15:05;;;;;;;6.13;5.80;;;21.00;99.90;;;;;;5087852;28;20467;-65
2023/08/25 06:17:32;;;;;;;6.77;6.17;;;21.00;99.90;;;;;;5087131;28;20445;-66
2023/08/25 06:20:00;;;;;;;6.90;6.50;;;21.00;99.90;;;;;;5087640;28;20448;-65
2023/08/25 06:22:27;;;;;;;6.90;6.27;;;21.00;99.90;;;;;;5087524;28;20452;-66
2023/08/25 06:24:54;;;;;;;6.60;6.10;;;21.10;99.90;;;;;;5088265;28;20895;-65
2023/08/25 06:27:21;;;;;;;5.40;4.90;;;21.10;99.90;;;;;;5086546;28;20454;-65
2023/08/25 06:29:47;;;;;;;6.90;6.30;;;21.10;99.90;;;;;;5086395;28;20824;-65
2023/08/25 06:32:15;;;;;;;7.17;6.43;;;21.20;99.90;;;;;;5087547;28;20465;-65
2023/08/25 06:34:42;;;;;;;5.73;5.30;;;21.20;99.90;;;;;;5088502;28;20976;-65
2023/08/25 06:37:10;;;;;;;6.30;5.77;;;21.20;99.90;;;;;;5087732;28;20969;-65
2023/08/25 06:39:37;;;;;;;7.17;6.67;;;21.20;99.90;;;;;;5088044;28;20548;-65
2023/08/25 06:42:05;;;;;;;7.03;6.43;;;21.20;99.90;;;;;;5088126;28;20834;-66
2023/08/25 06:44:32;;;;;;;7.03;6.53;;;21.20;99.90;;;;;;5087906;28;20911;-65
2023/08/25 06:46:59;;;;;;;7.23;6.57;;;21.20;99.90;;;;;;5087154;28;20452;-65
2023/08/25 06:49:25;;;;;;;6.53;6.13;;;21.20;99.90;;;;;;5088126;28;20940;-66
2023/08/25 06:51:52;;;;;;;9.30;6.80;;;21.10;99.90;;;;;;5088137;28;20449;-66
2023/08/25 06:54:21;;;;;;;7.30;6.60;;;21.10;99.90;;;;;;5087897;28;20460;-66
2023/08/25 06:56:48;;;;;;;7.47;6.77;;;21.10;99.90;;;;;;5087348;28;20457;-66
2023/08/25 06:59:15;;;;;;;7.00;6.50;;;21.10;99.90;;;;;;5088058;28;21023;-66
2023/08/25 07:01:42;;;;;;;6.73;6.13;;;21.10;99.90;;;;;;5088408;28;20449;-66
2023/08/25 07:04:09;;;;;;;8.70;6.07;;;21.10;99.90;;;;;;5088422;28;20860;-66
2023/08/25 07:06:36;;;;;;;8.33;7.63;;;21.10;99.90;;;;;;5087416;28;20451;-67
2023/08/25 07:09:03;;;;;;;8.40;7.23;;;21.00;99.90;;;;;;5088016;28;20970;-66
2023/08/25 07:11:31;;;;;;;7.87;7.17;;;21.00;99.90;;;;;;5087894;28;20973;-67
2023/08/25 07:13:59;;;;;;;7.50;6.80;;;20.90;99.90;;;;;;5087898;28;20866;-65
2023/08/25 07:16:26;;;;;;;10.80;8.10;;;20.90;99.90;;;;;;5086336;28;20454;-65
2023/08/25 07:18:53;;;;;;;9.03;8.00;;;20.80;99.90;;;;;;5087652;28;20449;-66
2023/08/25 07:21:20;;;;;;;9.43;8.53;;;20.70;99.90;;;;;;5082556;28;20978;-65
2023/08/25 07:23:47;;;;;;;9.50;8.30;;;20.70;99.90;;;;;;5086789;28;20500;-66
2023/08/25 07:26:14;;;;;;;9.17;8.47;;;20.60;99.90;;;;;;5086245;28;20458;-66
2023/08/25 07:28:42;;;;;;;9.67;8.73;;;20.60;99.90;;;;;;5087264;28;20469;-66
2023/08/25 07:31:09;;;;;;;10.60;9.70;;;20.60;99.90;;;;;;5087761;28;20456;-66
2023/08/25 07:33:37;;;;;;;10.57;9.60;;;20.50;99.90;;;;;;5086915;28;20475;-66
2023/08/25 07:36:04;;;;;;;11.00;9.47;;;20.60;99.90;;;;;;5086750;28;20523;-66
2023/08/25 07:38:31;;;;;;;14.03;9.33;;;20.50;99.90;;;;;;5078662;28;20931;-66
2023/08/25 07:40:58;;;;;;;9.93;8.93;;;20.50;99.90;;;;;;5087567;28;20570;-65
2023/08/25 07:43:25;;;;;;;8.43;7.73;;;20.50;99.90;;;;;;5086870;28;20490;-65
2023/08/25 07:45:54;;;;;;;8.50;7.80;;;20.50;99.90;;;;;;5078239;28;20529;-65
2023/08/25 07:48:21;;;;;;;9.27;8.47;;;20.50;99.90;;;;;;5086607;28;21242;-65
2023/08/25 07:50:48;;;;;;;9.43;8.57;;;20.50;99.90;;;;;;5087019;28;20462;-65
2023/08/25 07:53:15;;;;;;;10.07;9.20;;;20.50;99.90;;;;;;5090269;28;20861;-64
2023/08/25 07:55:43;;;;;;;9.70;8.53;;;20.50;99.90;;;;;;5090860;28;20450;-64
2023/08/25 07:58:10;;;;;;;7.13;6.53;;;20.50;99.90;;;;;;5089357;28;20807;-65
2023/08/25 08:00:38;;;;;;;7.70;7.07;;;20.50;99.90;;;;;;5089724;28;20874;-65
2023/08/25 08:03:08;;;;;;;7.57;6.97;;;20.50;99.90;;;;;;5082653;28;20481;-64
2023/08/25 08:05:35;;;;;;;7.37;6.77;;;20.40;99.90;;;;;;5090630;28;20454;-64
2023/08/25 08:08:02;;;;;;;7.47;6.00;;;20.40;99.90;;;;;;5085941;28;20957;-65
2023/08/25 08:10:29;;;;;;;6.50;5.80;;;20.40;99.90;;;;;;5090842;28;20977;-65
2023/08/25 08:12:57;;;;;;;6.20;5.60;;;20.40;99.90;;;;;;5089495;28;20496;-64
2023/08/25 08:15:25;;;;;;;7.67;6.97;;;20.40;99.90;;;;;;5086325;28;20847;-65
2023/08/25 08:17:52;;;;;;;7.13;6.57;;;20.30;99.90;;;;;;5088471;28;20541;-64
2023/08/25 08:20:21;;;;;;;10.07;9.17;;;20.30;99.90;;;;;;5084302;28;20451;-64
2023/08/25 08:22:47;;;;;;;9.27;8.13;;;20.20;99.90;;;;;;5089477;28;21183;-64
2023/08/25 08:25:14;;;;;;;8.73;7.77;;;20.30;99.90;;;;;;5090271;28;20577;-65
2023/08/25 08:27:42;;;;;;;6.73;6.23;;;20.30;99.90;;;;;;5088306;28;20482;-65
2023/08/25 08:30:10;;;;;;;7.97;6.37;;;20.30;99.90;;;;;;5089300;28;20550;-65
2023/08/25 08:32:38;;;;;;;6.63;5.40;;;20.20;99.90;;;;;;5084411;28;20501;-65
2023/08/25 08:35:08;;;;;;;6.33;5.73;;;20.20;99.90;;;;;;5082824;28;20447;-65
2023/08/25 08:37:36;;;;;;;7.27;6.57;;;20.20;99.90;;;;;;5078882;28;20971;-65
2023/08/25 08:40:04;;;;;;;8.60;6.90;;;20.20;99.90;;;;;;5068783;28;20535;-65
2023/08/25 08:42:33;;;;;;;9.87;7.60;;;20.30;99.90;;;;;;5069183;28;21345;-65
2023/08/25 08:45:03;;;;;;;7.73;7.00;;;20.30;99.90;;;;;;5083031;28;20922;-65
2023/08/25 08:47:31;;;;;;;12.67;7.57;;;20.40;99.90;;;;;;5088316;28;20447;-65
2023/08/25 08:49:59;;;;;;;9.80;7.80;;;20.40;99.90;;;;;;5089239;28;20450;-65
2023/08/25 08:52:28;;;;;;;9.83;8.47;;;20.40;99.90;;;;;;5089571;28;20529;-65
2023/08/25 08:54:57;;;;;;;7.50;6.90;;;20.40;99.90;;;;;;5089265;28;20557;-66
2023/08/25 08:57:24;;;;;;;7.73;7.10;;;20.50;99.90;;;;;;5088179;28;20966;-65
2023/08/25 08:59:51;;;;;;;8.27;7.47;;;20.50;99.90;;;;;;5088455;28;21212;-65
2023/08/25 09:02:20;;;;;;;9.57;7.50;;;20.50;99.90;;;;;;5088486;28;20455;-65
2023/08/25 09:04:50;;;;;;;7.57;6.87;;;20.60;99.90;;;;;;5088247;28;20522;-65
2023/08/25 09:07:18;;;;;;;7.23;6.53;;;20.70;99.90;;;;;;5087521;28;20454;-65
2023/08/25 09:09:45;;;;;;;8.43;7.63;;;20.70;99.90;;;;;;5077724;28;20479;-65
2023/08/25 09:12:15;;;;;;;7.43;6.70;;;20.80;99.90;;;;;;5068170;28;20458;-65
2023/08/25 09:14:42;;;;;;;7.57;6.87;;;20.90;99.90;;;;;;5068480;28;20565;-66
2023/08/25 09:17:13;;;;;;;6.43;5.83;;;20.90;99.90;;;;;;5067423;28;20462;-65
2023/08/25 09:19:40;;;;;;;6.50;5.43;;;21.00;99.90;;;;;;5068319;28;20545;-65
2023/08/25 09:22:10;;;;;;;7.00;6.40;;;21.00;99.90;;;;;;5079541;28;21658;-64
2023/08/25 09:24:38;;;;;;;6.07;5.50;;;21.00;99.90;;;;;;5088411;28;20498;-64
2023/08/25 09:27:06;;;;;;;6.80;6.00;;;21.10;99.90;;;;;;5087389;28;20550;-64
2023/08/25 09:29:42;;;;;;;8.73;6.10;;;21.10;99.90;;;;;;5087543;28;20530;-64
2023/08/25 09:32:14;;;;;;;6.93;6.33;;;21.10;99.90;;;;;;5086050;28;20965;-64
2023/08/25 09:34:41;;;;;;;7.87;7.17;;;21.20;99.90;;;;;;5069487;28;20461;-65
2023/08/25 09:37:08;;;;;;;6.60;6.00;;;21.30;99.90;;;;;;5083962;28;20538;-65
2023/08/25 09:39:42;;;;;;;7.00;6.40;;;21.30;99.90;;;;;;5070046;28;20942;-64
2023/08/25 09:42:09;;;;;;;4.80;4.50;;;21.40;99.90;;;;;;5068145;28;20999;-64
2023/08/25 09:44:37;;;;;;;6.07;5.63;;;21.40;99.90;;;;;;5067922;28;20518;-64
2023/08/25 09:47:06;;;;;;;6.13;5.67;;;21.50;99.90;;;;;;5067020;28;20453;-64
2023/08/25 09:49:38;;;;;;;5.40;4.37;;;21.50;99.90;;;;;;5067836;28;20900;-65
2023/08/25 09:52:06;;;;;;;4.90;4.00;;;21.60;99.90;;;;;;5067934;28;21056;-64
2023/08/25 09:54:34;;;;;;;5.00;4.67;;;21.60;99.90;;;;;;5072511;28;20464;-64
2023/08/25 09:57:02;;;;;;;3.90;3.60;;;21.70;99.90;;;;;;5085232;28;20454;-64
2023/08/25 09:59:29;;;;;;;4.27;3.97;;;21.70;99.90;;;;;;5086905;28;20972;-64
2023/08/25 10:01:58;;;;;;;4.53;4.13;;;21.70;99.90;;;;;;5087357;28;20445;-64
2023/08/25 10:04:27;;;;;;;4.00;3.60;;;21.70;99.90;;;;;;5084812;28;20502;-65
2023/08/25 10:06:55;;;;;;;4.57;4.20;;;21.80;99.90;;;;;;5086046;28;20449;-65
2023/08/25 10:09:24;;;;;;;3.40;3.10;;;21.80;99.90;;;;;;5086979;28;20450;-65
2023/08/25 10:11:51;;;;;;;4.77;4.30;;;21.80;99.90;;;;;;5087505;28;20450;-65
2023/08/25 10:14:24;;;;;;;3.67;3.47;;;21.90;99.90;;;;;;5086142;28;20469;-65
2023/08/25 10:16:52;;;;;;;3.33;3.13;;;22.00;99.90;;;;;;5084698;28;20456;-64
2023/08/25 10:19:23;;;;;;;4.27;3.60;;;22.10;99.90;;;;;;5086031;28;20446;-65
2023/08/25 10:21:52;;;;;;;3.53;3.00;;;22.20;99.90;;;;;;5086691;28;20456;-65
2023/08/25 10:24:20;;;;;;;5.57;3.37;;;22.30;99.90;;;;;;5086359;28;21254;-64
2023/08/25 10:26:48;;;;;;;3.37;3.07;;;22.40;99.90;;;;;;5086390;28;20449;-64
2023/08/25 10:29:18;;;;;;;4.13;3.67;;;22.60;99.90;;;;;;5086505;28;21210;-64
2023/08/25 10:31:46;;;;;;;4.30;4.00;;;22.80;99.90;;;;;;5086822;28;20459;-64
2023/08/25 10:34:32;;;;;;;4.27;3.87;;;23.00;99.90;;;;;;5086630;28;20458;-65
2023/08/25 10:37:09;;;;;;;4.53;3.43;;;23.20;99.90;;;;;;5086068;28;20449;-65
2023/08/25 10:39:49;;;;;;;2.93;2.73;;;23.40;99.90;;;;;;5086479;28;20541;-66
2023/08/25 10:42:20;;;;;;;3.03;2.83;;;23.60;99.90;;;;;;5086825;28;20525;-65
2023/08/25 10:44:47;;;;;;;3.30;3.10;;;23.80;99.90;;;;;;5087148;28;20518;-65
2023/08/25 10:47:19;;;;;;;3.67;3.00;;;23.90;99.90;;;;;;5086034;28;20463;-65
2023/08/25 10:49:46;;;;;;;4.77;3.07;;;24.10;99.90;;;;;;5086601;28;20920;-65
2023/08/25 10:52:16;;;;;;;3.87;3.53;;;24.20;99.90;;;;;;5086872;28;20453;-64
2023/08/25 10:54:45;;;;;;;3.13;2.93;;;24.30;99.90;;;;;;5086547;28;20466;-65
2023/08/25 10:57:39;;;;;;;3.77;3.47;;;24.40;99.90;;;;;;5085576;28;21181;-65
2023/08/25 11:00:25;;;;;;;3.33;3.13;;;24.40;99.90;;;;;;5086108;28;20463;-65
2023/08/25 11:02:52;;;;;;;3.60;2.73;;;24.60;99.90;;;;;;5086724;28;20547;-65
2023/08/25 11:05:41;;;;;;;6.30;3.60;;;24.60;99.90;;;;;;5086595;28;20513;-65
2023/08/25 11:11:13;;;;;;;3.30;3.03;;;24.60;99.90;;;;;;5084269;28;20596;-64
2023/08/25 11:13:41;;;;;;;3.97;2.73;;;24.80;99.90;;;;;;5073012;28;20474;-64
2023/08/25 11:16:09;;;;;;;2.83;2.63;;;24.80;99.90;;;;;;5063815;28;20535;-64
2023/08/25 11:18:36;;;;;;;2.90;2.60;;;24.80;99.90;;;;;;5064363;28;20475;-64
2023/08/25 11:21:04;;;;;;;5.63;3.63;;;24.80;99.90;;;;;;5064228;28;20523;-63
2023/08/25 11:23:41;;;;;;;2.80;2.60;;;24.70;99.90;;;;;;5063688;28;20515;-64
2023/08/25 11:26:09;;;;;;;3.23;2.93;;;24.70;99.90;;;;;;5063102;28;20543;-64
2023/08/25 11:28:38;;;;;;;3.60;3.30;;;24.70;99.90;;;;;;5063013;28;20455;-64
2023/08/25 11:31:05;;;;;;;3.13;2.90;;;24.60;99.90;;;;;;5063225;28;20436;-64
2023/08/25 11:33:33;;;;;;;3.13;2.83;;;24.60;99.90;;;;;;5062812;28;20471;-64
2023/08/25 11:36:00;;;;;;;2.93;2.60;;;24.50;99.90;;;;;;5062920;28;20450;-64
2023/08/25 11:38:29;;;;;;;3.20;2.47;;;24.50;99.90;;;;;;5063021;28;20463;-64
2023/08/25 11:40:56;;;;;;;2.93;2.73;;;24.50;99.90;;;;;;5055635;28;21037;-64
2023/08/25 11:43:29;;;;;;;3.00;2.73;;;24.50;99.90;;;;;;5060522;28;20538;-64
2023/08/25 11:45:58;;;;;;;3.20;2.97;;;24.50;99.90;;;;;;5055133;28;20452;-64
2023/08/25 11:48:25;;;;;;;3.07;2.87;;;24.60;99.90;;;;;;5062855;28;20462;-63
2023/08/25 11:50:52;;;;;;;3.70;2.80;;;24.60;99.90;;;;;;5061477;28;21093;-64
2023/08/25 11:53:19;;;;;;;3.77;3.37;;;24.70;99.90;;;;;;5061084;28;20559;-64
2023/08/25 11:55:59;;;;;;;3.20;2.90;;;24.80;99.90;;;;;;5061723;28;20445;-64
2023/08/25 11:58:30;;;;;;;3.13;2.80;;;24.80;99.90;;;;;;5062627;28;20458;-64
2023/08/25 12:01:04;;;;;;;4.13;3.33;;;25.00;99.90;;;;;;5062108;28;20453;-65
2023/08/25 12:03:31;;;;;;;2.93;2.73;;;25.10;99.90;;;;;;5061067;28;20500;-64
2023/08/25 12:05:59;;;;;;;3.47;3.27;;;25.10;99.90;;;;;;5059457;28;20452;-64
2023/08/25 12:08:26;;;;;;;2.60;2.50;;;25.20;99.90;;;;;;5062895;28;20508;-64
2023/08/25 12:10:55;;;;;;;2.80;2.60;;;25.20;99.90;;;;;;5061910;28;20488;-63
2023/08/25 12:13:29;;;;;;;3.60;3.30;;;25.20;99.90;;;;;;5061535;28;20495;-63
2023/08/25 12:15:56;;;;;;;4.50;3.10;;;25.20;99.90;;;;;;5053722;28;20458;-63
2023/08/25 12:18:32;;;;;;;3.57;3.27;;;25.10;99.90;;;;;;5062690;28;20461;-63
2023/08/25 12:20:59;;;;;;;3.33;3.07;;;25.10;99.90;;;;;;5055540;28;20451;-64
2023/08/25 12:23:25;;;;;;;3.43;3.13;;;25.10;99.90;;;;;;5049422;28;20531;-63
2023/08/25 12:25:52;;;;;;;3.37;3.07;;;25.20;99.90;;;;;;5048299;28;20456;-64
2023/08/25 12:28:21;;;;;;;5.47;3.00;;;25.20;99.90;;;;;;5044640;28;20451;-64
2023/08/25 12:30:48;;;;;;;3.50;3.20;;;25.30;99.90;;;;;;5048312;28;20498;-65
2023/08/25 12:33:15;;;;;;;3.53;3.23;;;25.40;99.90;;;;;;5048814;28;20468;-64
2023/08/25 12:35:43;;;;;;;3.07;2.87;;;25.60;99.90;;;;;;5049367;28;20456;-64
2023/08/25 12:38:10;;;;;;;3.40;3.20;;;25.90;99.90;;;;;;5048780;28;20546;-64
2023/08/25 12:40:37;;;;;;;3.40;3.10;;;26.00;99.90;;;;;;5049475;28;20472;-64
2023/08/25 12:43:04;;;;;;;3.27;3.00;;;26.10;99.90;;;;;;5047382;28;20487;-64
2023/08/25 12:45:31;;;;;;;3.80;2.97;;;26.20;99.90;;;;;;5049291;28;20447;-64
2023/08/25 12:47:58;;;;;;;3.03;2.83;;;26.30;99.90;;;;;;5048431;28;20448;-64
2023/08/25 12:50:27;;;;;;;4.00;3.50;;;26.30;99.90;;;;;;5046076;28;20580;-64
2023/08/25 12:52:55;;;;;;;4.87;4.57;;;26.30;99.90;;;;;;5047514;28;20503;-63